Time;durP1;ratioP1;P1;durP2;ratioP2;P2;SDS_P1;SDS_P2;PMS_P1;PMS_P2;Temp;Humidity;BMP_temperature;BMP_pressure;BME280_temperature;BME280_humidity;BME280_pressure;Samples;Min_cycle;Max_cycle;Signal;HPM_P1;HPM_P2
2021/06/09 00:01:50;;;;;;;5.55;4.18;;;;;;;18.64;60.22;99739.06;4423010;32;31179;-89
2021/06/09 00:04:15;;;;;;;6.40;4.30;;;;;;;18.51;60.21;99742.59;4405153;32;20148;-89
2021/06/09 00:06:41;;;;;;;6.35;4.05;;;;;;;18.62;60.22;99733.06;4388155;32;21540;-88
2021/06/09 00:09:07;;;;;;;10.60;5.82;;;;;;;18.61;60.21;99733.97;4382675;32;20094;-88
2021/06/09 00:11:33;;;;;;;5.65;3.95;;;;;;;18.40;60.20;99735.38;4369695;32;20141;-89
2021/06/09 00:13:58;;;;;;;6.72;4.00;;;;;;;18.49;60.20;99729.53;4369636;32;20206;-90
2021/06/09 00:16:24;;;;;;;5.87;4.57;;;;;;;18.33;60.19;99729.66;4394337;32;20157;-90
2021/06/09 00:18:49;;;;;;;7.82;4.62;;;;;;;18.12;60.18;99732.81;4381717;32;20134;-90
2021/06/09 00:21:15;;;;;;;5.60;4.32;;;;;;;18.15;60.18;99733.44;4369237;32;20086;-89
2021/06/09 00:23:41;;;;;;;5.20;3.95;;;;;;;18.27;60.18;99732.69;4394233;32;20131;-89
2021/06/09 00:26:07;;;;;;;7.65;4.78;;;;;;;17.92;60.17;99731.41;4394394;32;20122;-90
2021/06/09 00:28:34;;;;;;;6.70;4.78;;;;;;;17.79;60.17;99723.44;4381699;32;20120;-89
2021/06/09 00:31:00;;;;;;;9.13;4.80;;;;;;;17.90;60.17;99726.25;4406501;32;20090;-89
2021/06/09 00:33:26;;;;;;;6.43;5.20;;;;;;;18.08;60.18;99726.87;4381453;32;20109;-89
2021/06/09 00:35:56;;;;;;;6.95;4.35;;;;;;;17.93;60.18;99727.84;4394091;32;20097;-89
2021/06/09 00:38:22;;;;;;;7.18;4.30;;;;;;;17.95;60.17;99732.06;4406493;32;20081;-90
2021/06/09 00:40:47;;;;;;;9.18;4.90;;;;;;;18.08;60.18;99724.25;4368351;32;25569;-89
2021/06/09 00:43:12;;;;;;;6.00;4.87;;;;;;;18.01;60.18;99725.59;4381361;32;20135;-88
2021/06/09 00:45:43;;;;;;;7.90;4.43;;;;;;;17.74;60.16;99717.59;4408131;32;20465;-89
2021/06/09 00:48:08;;;;;;;;;;;;;;;17.90;60.17;99717.50;4381891;32;20226;-89
2021/06/09 00:50:33;;;;;;;9.80;4.07;;;;;;;17.92;60.18;99721.72;4381490;32;19996;-89
2021/06/09 00:53:27;;;;;;;5.57;4.65;;;;;;;17.78;60.16;99714.72;4393994;32;20206;-89
2021/06/09 00:55:44;;;;;;;6.32;5.07;;;;;;;17.66;60.16;99715.41;4385974;32;20097;-88
2021/06/09 00:58:10;;;;;;;7.25;5.30;;;;;;;17.75;60.16;99714.91;4394066;32;20392;-89
2021/06/09 01:00:35;;;;;;;6.53;5.18;;;;;;;17.65;60.15;99707.62;4393757;32;20091;-89
2021/06/09 01:03:01;;;;;;;9.52;5.07;;;;;;;17.77;60.17;99712.19;4381232;32;20463;-89
2021/06/09 01:05:26;;;;;;;8.38;4.72;;;;;;;17.89;60.17;99706.13;4381473;32;20362;-89
2021/06/09 01:07:51;;;;;;;7.87;5.10;;;;;;;17.72;60.16;99712.44;4381016;32;20112;-89
2021/06/09 01:10:17;;;;;;;5.85;4.97;;;;;;;17.76;60.16;99710.47;4393922;32;20114;-89
2021/06/09 01:12:42;;;;;;;5.78;5.05;;;;;;;17.82;60.16;99714.50;4393160;32;22634;-88
2021/06/09 01:15:08;;;;;;;7.93;5.30;;;;;;;17.59;60.15;99718.53;4393646;32;20215;-89
2021/06/09 01:17:34;;;;;;;5.62;5.03;;;;;;;17.71;60.16;99723.91;4381212;32;20109;-89
2021/06/09 01:19:59;;;;;;;6.75;4.78;;;;;;;17.68;60.16;99720.63;4392916;32;31870;-89
2021/06/09 01:22:24;;;;;;;7.40;5.35;;;;;;;17.92;60.16;99715.62;4368646;32;20488;-89
2021/06/09 01:24:50;;;;;;;7.05;5.35;;;;;;;17.86;60.17;99710.75;4393346;32;25325;-88
2021/06/09 01:27:20;;;;;;;9.02;5.20;;;;;;;17.86;60.17;99711.59;4368741;32;20093;-88
2021/06/09 01:29:45;;;;;;;7.78;5.57;;;;;;;17.82;60.16;99715.34;4381356;32;20082;-89
2021/06/09 01:32:11;;;;;;;8.23;5.35;;;;;;;17.77;60.16;99717.44;4405595;32;26388;-89
2021/06/09 01:34:36;;;;;;;6.22;5.53;;;;;;;17.89;60.16;99715.81;4380810;32;24809;-89
2021/06/09 01:37:01;;;;;;;10.35;6.18;;;;;;;17.79;60.16;99716.41;4381374;32;20136;-89
2021/06/09 01:39:27;;;;;;;6.72;5.45;;;;;;;17.76;60.15;99713.97;4381227;32;20131;-89
2021/06/09 01:41:52;;;;;;;6.72;5.60;;;;;;;17.84;60.17;99715.25;4392928;32;23528;-89
2021/06/09 01:44:18;;;;;;;8.30;5.57;;;;;;;17.81;60.17;99713.66;4381306;32;20106;-89
2021/06/09 01:46:43;;;;;;;10.50;6.15;;;;;;;17.90;60.16;99713.09;4392342;32;22300;-88
2021/06/09 01:49:09;;;;;;;8.10;6.05;;;;;;;17.74;60.16;99707.94;4393750;32;20090;-88
2021/06/09 01:51:35;;;;;;;8.93;6.05;;;;;;;17.92;60.16;99712.97;4407480;32;20117;-88
2021/06/09 01:54:05;;;;;;;9.15;5.35;;;;;;;17.77;60.16;99717.44;4367871;32;31316;-89
2021/06/09 01:56:30;;;;;;;9.70;5.43;;;;;;;17.78;60.16;99709.44;4368896;32;20090;-88
2021/06/09 01:58:55;;;;;;;5.95;5.30;;;;;;;17.62;60.16;99711.28;4393098;32;25684;-89
2021/06/09 02:01:21;;;;;;;12.27;5.93;;;;;;;17.70;60.16;99716.94;4368152;32;30735;-91
2021/06/09 02:03:46;;;;;;;11.02;5.65;;;;;;;17.94;60.17;99709.31;4368926;32;20141;-89
2021/06/09 02:06:12;;;;;;;9.48;6.12;;;;;;;17.95;60.17;99710.16;4393615;32;20136;-90
2021/06/09 02:08:37;;;;;;;8.00;6.07;;;;;;;17.72;60.16;99709.81;4393622;32;20121;-89
2021/06/09 02:11:02;;;;;;;8.98;6.35;;;;;;;17.63;60.15;99709.50;4393449;32;20163;-89
2021/06/09 02:13:30;;;;;;;7.87;6.22;;;;;;;17.56;60.15;99714.31;4393591;32;22573;-92
2021/06/09 02:15:56;;;;;;;11.25;6.57;;;;;;;17.54;60.16;99713.56;4382524;32;20082;-92
2021/06/09 02:18:23;;;;;;;8.80;6.68;;;;;;;17.50;60.14;99720.75;4382030;32;20494;-92
2021/06/09 02:20:53;;;;;;;9.73;6.68;;;;;;;17.58;60.15;99707.16;4369982;32;20106;-91
2021/06/09 02:23:19;;;;;;;;;;;;;;;17.52;60.14;99715.44;4370155;32;20167;-92
2021/06/09 02:25:48;;;;;;;9.90;6.37;;;;;;;17.35;60.14;99710.34;4394499;32;19998;-92
2021/06/09 02:28:13;;;;;;;13.02;7.15;;;;;;;17.21;60.13;99713.78;4382529;32;20458;-91
2021/06/09 02:30:42;;;;;;;10.40;6.87;;;;;;;17.21;60.13;99719.06;4381814;32;20125;-92
2021/06/09 02:33:07;;;;;;;7.53;6.18;;;;;;;17.16;60.13;99721.13;4369305;32;20162;-92
2021/06/09 02:35:37;;;;;;;7.43;6.68;;;;;;;17.18;60.13;99717.47;4369144;32;20132;-92
2021/06/09 02:38:02;;;;;;;12.90;7.07;;;;;;;17.24;60.13;99718.87;4369663;32;20471;-91
2021/06/09 02:40:28;;;;;;;8.50;7.18;;;;;;;17.25;60.13;99717.94;4369416;32;20177;-93
2021/06/09 02:42:53;;;;;;;11.27;7.57;;;;;;;17.25;60.13;99717.09;4381533;32;32232;-92
2021/06/09 02:45:20;;;;;;;9.35;7.35;;;;;;;17.39;60.14;99712.69;4394585;32;23343;-92
2021/06/09 02:47:47;;;;;;;9.93;6.80;;;;;;;17.27;60.13;99723.97;4382982;32;20058;-92
2021/06/09 02:50:13;;;;;;;9.10;7.45;;;;;;;17.19;60.12;99718.31;4373291;32;20062;-92
2021/06/09 02:52:45;;;;;;;10.00;7.40;;;;;;;17.13;60.12;99714.25;4384592;32;20089;-92
2021/06/09 02:55:26;;;;;;;11.05;7.22;;;;;;;17.07;60.12;99712.00;4397339;32;20101;-90
2021/06/09 02:58:26;;;;;;;9.52;7.12;;;;;;;16.82;60.11;99717.00;4416864;32;20054;-90
2021/06/09 03:00:57;;;;;;;8.70;7.07;;;;;;;16.83;60.10;99708.19;4396443;32;20098;-90
2021/06/09 03:03:38;;;;;;;9.07;7.30;;;;;;;17.02;60.12;99707.94;4407583;32;20098;-90
2021/06/09 03:06:08;;;;;;;9.75;7.22;;;;;;;17.02;60.12;99715.81;4394399;32;20101;-89
2021/06/09 03:08:58;;;;;;;7.67;6.87;;;;;;;16.77;60.11;99716.41;4380905;32;20120;-89
2021/06/09 03:11:32;;;;;;;;;;;;;;;16.78;60.11;99721.56;4407390;32;20120;-89
2021/06/09 03:15:09;;;;;;;10.30;7.12;;;;;;;16.84;60.11;99723.88;4393083;32;20395;-88
2021/06/09 03:17:15;;;;;;;9.43;6.95;;;;;;;16.91;60.11;99723.50;4398055;32;20633;-89
2021/06/09 03:19:57;;;;;;;12.32;7.32;;;;;;;16.95;60.12;99717.97;4380562;32;20153;-89
2021/06/09 03:22:27;;;;;;;12.35;7.87;;;;;;;17.22;60.13;99714.62;4392718;32;20996;-90
2021/06/09 03:24:54;;;;;;;;;;;;;;;17.15;60.13;99709.75;4368236;32;20110;-89
2021/06/09 03:27:31;;;;;;;7.05;6.10;;;;;;;17.07;60.12;99722.53;4392839;32;19985;-89
2021/06/09 03:30:02;;;;;;;9.15;6.37;;;;;;;17.15;60.13;99720.28;4381148;32;20105;-89
2021/06/09 03:32:51;;;;;;;9.40;6.75;;;;;;;17.26;60.13;99716.12;4380623;32;20443;-89
2021/06/09 03:35:24;;;;;;;11.77;7.90;;;;;;;17.30;60.13;99712.41;4380360;32;20102;-89
2021/06/09 03:37:52;;;;;;;11.60;6.97;;;;;;;17.29;60.13;99714.19;4392430;32;20468;-90
2021/06/09 03:40:39;;;;;;;14.00;6.82;;;;;;;17.30;60.13;99715.03;4380115;32;20094;-90
2021/06/09 03:43:06;;;;;;;11.35;7.12;;;;;;;17.41;60.14;99712.59;4381808;32;20114;-90
2021/06/09 03:45:32;;;;;;;11.98;7.10;;;;;;;17.60;60.14;99720.22;4368809;32;20116;-89
2021/06/09 03:47:58;;;;;;;11.32;8.57;;;;;;;17.69;60.14;99715.25;4395895;32;20474;-91
2021/06/09 03:50:24;;;;;;;12.68;7.37;;;;;;;17.84;60.17;99710.84;4380272;32;20229;-90
2021/06/09 03:52:49;;;;;;;10.73;7.90;;;;;;;17.91;60.16;99717.41;4380678;32;20493;-89
2021/06/09 03:55:17;;;;;;;9.32;7.68;;;;;;;18.18;60.18;99711.34;4379900;32;20102;-89
2021/06/09 03:57:43;;;;;;;11.65;8.57;;;;;;;18.21;60.17;99711.13;4379941;32;20087;-88
2021/06/09 04:00:08;;;;;;;10.02;8.30;;;;;;;18.21;60.17;99713.75;4379171;32;22794;-89
2021/06/09 04:02:34;;;;;;;11.50;8.27;;;;;;;18.46;60.19;99705.16;4379680;32;20149;-90
2021/06/09 04:05:01;;;;;;;10.23;8.82;;;;;;;18.48;60.19;99706.75;4404932;32;20112;-90
2021/06/09 04:07:27;;;;;;;12.60;8.68;;;;;;;18.48;60.19;99709.38;4367620;32;20094;-91
2021/06/09 04:09:53;;;;;;;12.02;9.23;;;;;;;18.46;60.19;99706.00;4381352;32;20117;-90
2021/06/09 04:12:18;;;;;;;12.77;8.70;;;;;;;18.67;60.20;99706.38;4394675;32;20070;-91
2021/06/09 04:14:45;;;;;;;10.20;8.90;;;;;;;18.80;60.21;99703.78;4381636;32;20402;-92
2021/06/09 04:17:10;;;;;;;11.82;9.15;;;;;;;18.96;60.22;99704.47;4370389;32;20090;-91
2021/06/09 04:19:37;;;;;;;11.32;9.32;;;;;;;19.04;60.22;99698.66;4382226;32;20166;-92
2021/06/09 04:22:03;;;;;;;13.70;9.68;;;;;;;19.08;60.23;99703.63;4382784;32;20102;-90
2021/06/09 04:24:30;;;;;;;12.60;8.93;;;;;;;19.09;60.23;99701.84;4369683;32;20179;-91
2021/06/09 04:26:56;;;;;;;12.60;9.20;;;;;;;19.28;60.23;99705.75;4382447;32;20091;-91
2021/06/09 04:29:21;;;;;;;13.48;8.98;;;;;;;19.36;60.23;99705.22;4394712;32;20150;-90
2021/06/09 04:31:47;;;;;;;14.65;9.73;;;;;;;19.49;60.24;99708.72;4381911;32;20157;-90
2021/06/09 04:34:12;;;;;;;12.20;9.68;;;;;;;19.50;60.24;99715.69;4369708;32;20176;-92
2021/06/09 04:36:38;;;;;;;11.07;8.98;;;;;;;19.76;60.25;99715.69;4368626;32;26963;-90
2021/06/09 04:39:04;;;;;;;12.75;8.98;;;;;;;20.05;60.28;99703.03;4393802;32;25875;-92
2021/06/09 04:41:29;;;;;;;11.35;9.48;;;;;;;19.88;60.27;99714.84;4381788;32;20419;-91
2021/06/09 04:43:55;;;;;;;11.88;9.18;;;;;;;19.76;60.25;99713.91;4394499;32;20145;-90
2021/06/09 04:46:21;;;;;;;10.93;9.32;;;;;;;19.87;60.26;99713.13;4381417;32;20133;-90
2021/06/09 04:49:05;;;;;;;12.82;10.07;;;;;;;20.18;60.28;99711.78;4394177;32;20110;-90
2021/06/09 04:51:35;;;;;;;11.77;9.20;;;;;;;20.31;60.29;99704.66;4394885;32;20516;-90
2021/06/09 04:54:04;;;;;;;10.65;9.55;;;;;;;20.56;60.31;99708.16;4408222;32;20912;-90
2021/06/09 04:56:33;;;;;;;14.43;9.65;;;;;;;20.55;60.31;99709.97;4406506;32;20136;-90
2021/06/09 04:59:04;;;;;;;12.90;9.40;;;;;;;20.75;60.31;99709.34;4381848;32;20152;-90
2021/06/09 05:01:29;;;;;;;11.98;9.50;;;;;;;20.94;60.32;99714.09;4382074;32;20598;-90
2021/06/09 05:03:56;;;;;;;14.52;9.93;;;;;;;21.02;60.32;99709.06;4394541;32;20125;-92
2021/06/09 05:06:22;;;;;;;10.88;9.73;;;;;;;21.28;60.34;99699.16;4381819;32;20085;-91
2021/06/09 05:08:47;;;;;;;15.75;10.45;;;;;;;21.22;60.33;99704.06;4381581;32;20112;-91
2021/06/09 05:11:17;;;;;;;10.43;9.32;;;;;;;21.34;60.34;99709.31;4393682;32;20181;-91
2021/06/09 05:13:42;;;;;;;15.25;10.95;;;;;;;21.43;60.35;99703.28;4382048;32;20101;-90
2021/06/09 05:16:09;;;;;;;12.82;10.18;;;;;;;21.60;60.35;99695.84;4393304;32;29159;-90
2021/06/09 05:18:38;;;;;;;16.33;11.23;;;;;;;21.59;60.36;99699.44;4369016;32;20102;-90
2021/06/09 05:21:04;;;;;;;16.27;11.00;;;;;;;21.70;60.36;99689.69;4381155;32;20114;-90
2021/06/09 05:23:41;;;;;;;14.90;11.35;;;;;;;21.82;60.37;99687.87;4394602;32;20093;-91
2021/06/09 05:26:08;;;;;;;16.52;11.68;;;;;;;21.94;60.38;99692.19;4382904;32;20489;-91
2021/06/09 05:28:37;;;;;;;14.05;10.38;;;;;;;22.01;60.37;99689.91;4381744;32;20144;-91
2021/06/09 05:31:02;;;;;;;12.37;11.13;;;;;;;22.03;60.38;99686.16;4381882;32;20102;-91
2021/06/09 05:33:28;;;;;;;12.35;10.43;;;;;;;22.15;60.38;99694.97;4391253;32;89519;-91
2021/06/09 05:35:54;;;;;;;18.85;10.65;;;;;;;22.30;60.39;99685.78;4368793;32;26333;-91
2021/06/09 05:38:20;;;;;;;14.32;10.80;;;;;;;22.35;60.40;99693.34;4394685;32;20106;-90
2021/06/09 05:40:46;;;;;;;13.00;11.15;;;;;;;22.30;60.39;99687.59;4381672;32;20490;-90
2021/06/09 05:43:11;;;;;;;11.40;10.30;;;;;;;22.32;60.39;99696.25;4392020;32;20121;-91
2021/06/09 05:45:36;;;;;;;10.77;9.68;;;;;;;22.43;60.39;99695.34;4396834;32;20325;-88
2021/06/09 05:48:02;;;;;;;13.50;10.52;;;;;;;22.52;60.40;99694.63;4395895;32;20090;-90
2021/06/09 05:50:29;;;;;;;14.38;11.07;;;;;;;22.89;60.43;99690.59;4404467;32;20098;-90
2021/06/09 05:52:57;;;;;;;12.20;10.98;;;;;;;23.11;60.43;99684.34;4397071;32;20132;-90
2021/06/09 05:55:24;;;;;;;15.60;10.85;;;;;;;22.99;60.43;99688.03;4382105;32;20476;-89
2021/06/09 05:57:50;;;;;;;13.32;10.63;;;;;;;23.21;60.44;99689.72;4381616;32;20758;-90
2021/06/09 06:00:17;;;;;;;14.50;10.95;;;;;;;23.11;60.43;99688.81;4381538;32;20110;-89
2021/06/09 06:02:43;;;;;;;12.18;10.88;;;;;;;23.34;60.46;99695.66;4393383;32;20516;-89
2021/06/09 06:05:09;;;;;;;13.82;9.75;;;;;;;23.50;60.46;99698.69;4380593;32;20868;-91
2021/06/09 06:07:35;;;;;;;11.93;10.05;;;;;;;23.61;60.46;99694.28;4405753;32;20122;-90
2021/06/09 06:10:00;;;;;;;15.13;10.35;;;;;;;23.77;60.47;99692.81;4393388;32;20142;-90
2021/06/09 06:12:26;;;;;;;11.73;10.52;;;;;;;23.73;60.46;99693.22;4407452;32;20169;-91
2021/06/09 06:14:52;;;;;;;14.25;10.60;;;;;;;23.86;60.48;99707.94;4393365;32;20351;-89
2021/06/09 06:17:17;;;;;;;14.10;9.73;;;;;;;23.92;60.48;99700.41;4380905;32;20398;-89
2021/06/09 06:19:43;;;;;;;13.13;9.93;;;;;;;24.22;60.49;99697.69;4379313;32;20133;-88
2021/06/09 06:22:11;;;;;;;14.43;10.82;;;;;;;24.39;60.50;99697.06;4406363;32;20180;-89
2021/06/09 06:24:40;;;;;;;12.40;9.63;;;;;;;24.64;60.51;99693.00;4391767;32;26537;-88
2021/06/09 06:27:09;;;;;;;14.90;10.37;;;;;;;24.56;60.51;99692.00;4367623;32;20105;-88
2021/06/09 06:29:34;;;;;;;15.23;10.20;;;;;;;24.93;60.53;99692.16;4379693;32;20832;-90
2021/06/09 06:32:00;;;;;;;10.35;9.23;;;;;;;25.09;60.54;99690.63;4367012;32;20138;-89
2021/06/09 06:34:25;;;;;;;11.85;8.05;;;;;;;25.16;60.54;99685.56;4379445;32;20085;-89
2021/06/09 06:36:51;;;;;;;10.10;8.73;;;;;;;25.19;60.54;99684.41;4367311;32;20229;-89
2021/06/09 06:39:16;;;;;;;13.98;9.48;;;;;;;25.48;60.56;99687.00;4378993;32;28272;-89
2021/06/09 06:41:41;;;;;;;13.48;8.60;;;;;;;25.90;60.58;99687.41;4366738;32;20177;-88
2021/06/09 06:44:07;;;;;;;9.15;7.32;;;;;;;26.24;60.59;99680.44;4391655;32;26607;-90
2021/06/09 06:46:32;;;;;;;10.48;8.15;;;;;;;26.31;60.60;99683.38;4367028;32;20179;-90
2021/06/09 06:48:58;;;;;;;11.05;7.87;;;;;;;26.51;60.61;99682.28;4379563;32;20179;-89
2021/06/09 06:51:24;;;;;;;8.60;7.70;;;;;;;26.90;60.63;99687.25;4367069;32;20160;-88
2021/06/09 06:53:51;;;;;;;7.75;5.78;;;;;;;27.14;60.65;99689.31;4366941;32;20613;-90
2021/06/09 06:56:17;;;;;;;8.43;5.25;;;;;;;27.49;60.65;99685.69;4380081;32;20128;-90
2021/06/09 06:58:48;;;;;;;7.57;6.22;;;;;;;27.61;60.67;99688.94;4367188;32;20114;-88
2021/06/09 07:01:15;;;;;;;7.28;5.22;;;;;;;27.65;60.66;99687.63;4380575;32;20265;-89
2021/06/09 07:03:41;;;;;;;11.12;6.10;;;;;;;27.62;60.66;99685.25;4379822;32;20120;-89
2021/06/09 07:06:07;;;;;;;7.32;5.60;;;;;;;27.92;60.68;99692.78;4378646;32;23725;-89
2021/06/09 07:08:32;;;;;;;7.00;5.32;;;;;;;28.03;60.69;99680.94;4379304;32;20172;-90
2021/06/09 07:10:57;;;;;;;8.55;6.10;;;;;;;28.19;60.69;99675.66;4366403;32;26269;-89
2021/06/09 07:13:23;;;;;;;7.68;5.90;;;;;;;28.29;60.69;99676.34;4391829;32;20141;-88
2021/06/09 07:15:51;;;;;;;6.85;5.85;;;;;;;28.40;60.70;99678.75;4392549;32;20149;-88
2021/06/09 07:18:16;;;;;;;8.18;6.25;;;;;;;28.50;60.71;99683.09;4392929;32;20170;-89
2021/06/09 07:20:42;;;;;;;9.18;5.75;;;;;;;28.57;60.72;99684.09;4391878;32;28064;-87
2021/06/09 07:23:07;;;;;;;7.22;6.10;;;;;;;28.56;60.72;99688.59;4392539;32;20359;-89
2021/06/09 07:25:33;;;;;;;12.75;6.28;;;;;;;28.86;60.74;99676.41;4379522;32;27637;-88
2021/06/09 07:28:02;;;;;;;9.07;5.70;;;;;;;28.81;60.73;99681.41;4367627;32;20210;-89
2021/06/09 07:30:29;;;;;;;7.05;5.72;;;;;;;28.59;60.71;99677.56;4380457;32;20144;-91
2021/06/09 07:32:54;;;;;;;10.50;6.75;;;;;;;28.84;60.73;99678.41;4363027;32;20463;-88
2021/06/09 07:35:20;;;;;;;9.90;6.37;;;;;;;28.66;60.72;99685.78;4367060;32;20094;-88
2021/06/09 07:38:10;;;;;;;11.75;6.30;;;;;;;28.79;60.73;99679.91;4406157;32;20114;-88
2021/06/09 07:40:40;;;;;;;10.35;6.05;;;;;;;28.90;60.73;99685.81;4393760;32;20120;-89
2021/06/09 07:43:15;;;;;;;;;;;;;;;29.08;60.74;99685.62;4380325;32;20112;-90
2021/06/09 07:45:40;;;;;;;10.18;5.72;;;;;;;29.17;60.74;99678.41;4394452;32;19982;-89
2021/06/09 07:48:06;;;;;;;10.10;6.05;;;;;;;28.86;60.73;99695.19;4381684;32;20098;-90
2021/06/09 07:50:37;;;;;;;8.43;5.30;;;;;;;29.02;60.74;99687.13;4394257;32;20110;-88
2021/06/09 07:53:07;;;;;;;9.00;5.35;;;;;;;29.32;60.75;99688.25;4381213;32;20116;-89
2021/06/09 07:55:41;;;;;;;7.50;5.20;;;;;;;29.44;60.76;99680.69;4381938;32;20161;-88
2021/06/09 07:58:06;;;;;;;5.90;4.72;;;;;;;29.65;60.78;99682.84;4394189;32;20121;-90
2021/06/09 08:00:32;;;;;;;7.47;5.78;;;;;;;29.64;60.78;99692.75;4394248;32;20180;-88
2021/06/09 08:02:58;;;;;;;8.48;5.40;;;;;;;29.95;60.79;99687.41;4394041;32;20062;-89
2021/06/09 08:05:24;;;;;;;7.10;5.75;;;;;;;29.91;60.79;99679.91;4393379;32;20114;-88
2021/06/09 08:07:50;;;;;;;9.60;5.47;;;;;;;30.18;60.80;99682.13;4393836;32;20186;-88
2021/06/09 08:10:15;;;;;;;6.60;4.97;;;;;;;30.43;60.81;99679.28;4381425;32;20138;-89
2021/06/09 08:12:40;;;;;;;11.27;6.22;;;;;;;30.41;60.81;99681.31;4394201;32;20109;-90
2021/06/09 08:15:07;;;;;;;11.60;5.82;;;;;;;30.63;60.82;99675.13;4404452;32;20086;-88
2021/06/09 08:17:32;;;;;;;10.93;6.25;;;;;;;30.67;60.82;99680.97;4381371;32;20132;-90
2021/06/09 08:19:57;;;;;;;8.80;5.47;;;;;;;30.52;60.81;99680.87;4380997;32;20158;-90
2021/06/09 08:22:23;;;;;;;7.37;5.03;;;;;;;30.61;60.83;99687.91;4393465;32;22886;-89
2021/06/09 08:24:49;;;;;;;7.85;5.10;;;;;;;30.76;60.84;99678.06;4393892;32;20254;-91
2021/06/09 08:27:15;;;;;;;5.65;4.65;;;;;;;30.92;60.85;99668.19;4381961;32;20165;-93
2021/06/09 08:29:40;;;;;;;7.15;4.57;;;;;;;31.39;60.87;99666.03;4370180;32;20124;-94
2021/06/09 08:32:06;;;;;;;9.00;4.12;;;;;;;31.66;60.87;99669.09;4371547;32;20098;-96
2021/06/09 08:34:32;;;;;;;4.65;3.78;;;;;;;31.92;60.89;99669.47;4397218;32;20148;-94
2021/06/09 08:36:57;;;;;;;4.60;4.10;;;;;;;32.14;60.90;99669.50;4371699;32;20438;-93
2021/06/09 08:39:25;;;;;;;7.50;4.07;;;;;;;32.47;60.92;99662.66;4371269;32;20098;-93
2021/06/09 08:41:50;;;;;;;5.75;3.95;;;;;;;32.74;60.92;99671.81;4384768;32;20086;-91
2021/06/09 08:44:15;;;;;;;7.47;4.10;;;;;;;33.03;60.95;99668.13;4385192;32;20086;-90
2021/06/09 08:46:41;;;;;;;4.12;3.72;;;;;;;33.09;60.94;99675.44;4378706;32;20181;-90
2021/06/09 08:49:06;;;;;;;5.10;4.40;;;;;;;33.17;60.96;99687.97;4384673;32;20102;-90
2021/06/09 08:51:32;;;;;;;5.22;4.03;;;;;;;33.27;60.96;99680.34;4368292;32;23302;-89
2021/06/09 08:53:58;;;;;;;6.57;4.45;;;;;;;33.51;60.97;99676.38;4407643;32;20078;-90
2021/06/09 08:56:24;;;;;;;5.65;4.03;;;;;;;33.74;60.98;99678.78;4380980;32;20140;-89
2021/06/09 08:58:50;;;;;;;7.65;4.60;;;;;;;33.76;60.98;99674.84;4368717;32;20106;-88
2021/06/09 09:01:16;;;;;;;6.62;4.53;;;;;;;33.94;60.99;99673.50;4380875;32;20249;-89
2021/06/09 09:03:43;;;;;;;6.45;4.00;;;;;;;33.92;60.99;99678.28;4380937;32;20165;-88
2021/06/09 09:06:08;;;;;;;6.97;4.12;;;;;;;33.99;61.00;99679.13;4393704;32;20367;-90
2021/06/09 09:08:34;;;;;;;5.40;4.30;;;;;;;33.94;60.99;99679.75;4380960;32;20196;-89
2021/06/09 09:11:00;;;;;;;5.78;4.40;;;;;;;33.92;60.99;99683.69;4381192;32;20130;-90
2021/06/09 09:13:25;;;;;;;5.45;3.92;;;;;;;33.95;61.00;99686.81;4380297;32;20117;-88
2021/06/09 09:15:51;;;;;;;7.32;4.47;;;;;;;33.84;60.99;99688.22;4379926;32;20129;-89
2021/06/09 09:18:17;;;;;;;10.90;4.90;;;;;;;34.04;61.00;99685.56;4381068;32;20148;-88
2021/06/09 09:20:44;;;;;;;6.40;4.57;;;;;;;34.24;61.01;99688.34;4380362;32;23251;-88
2021/06/09 09:23:28;;;;;;;7.07;4.75;;;;;;;34.25;61.00;99689.19;4381033;32;20102;-87
2021/06/09 09:25:55;;;;;;;7.15;5.43;;;;;;;34.39;61.02;99690.94;4393342;32;20171;-88
2021/06/09 09:28:32;;;;;;;5.90;4.70;;;;;;;34.21;61.01;99685.22;4406086;32;20110;-88
2021/06/09 09:31:08;;;;;;;6.50;4.97;;;;;;;34.26;61.01;99688.97;4393508;32;20102;-87
2021/06/09 09:33:34;;;;;;;5.95;4.70;;;;;;;34.39;61.01;99691.75;4380809;32;20110;-86
2021/06/09 09:35:59;;;;;;;5.93;4.90;;;;;;;34.25;61.01;99690.00;4393581;32;20125;-87
2021/06/09 09:38:31;;;;;;;6.45;5.10;;;;;;;34.41;61.02;99683.44;4368362;32;20143;-87
2021/06/09 09:41:08;;;;;;;6.97;4.50;;;;;;;34.64;61.03;99686.59;4407036;32;20105;-87
2021/06/09 09:43:52;;;;;;;6.28;5.05;;;;;;;34.84;61.05;99681.25;4393541;32;20083;-87
2021/06/09 09:46:22;;;;;;;7.75;5.80;;;;;;;34.83;61.04;99686.81;4407305;32;20116;-87
2021/06/09 09:49:17;;;;;;;7.90;5.62;;;;;;;34.77;61.04;99675.78;4393784;32;20074;-89
2021/06/09 09:51:55;;;;;;;9.70;5.55;;;;;;;34.70;61.04;99682.22;4393630;32;20208;-88
2021/06/09 09:54:34;;;;;;;8.23;5.10;;;;;;;34.64;61.03;99674.94;4407464;32;20439;-88
2021/06/09 09:57:11;;;;;;;10.73;5.57;;;;;;;34.62;61.03;99685.12;4394510;32;20120;-87
2021/06/09 09:59:36;;;;;;;6.05;5.45;;;;;;;34.48;61.02;99686.97;4394258;32;20106;-87
2021/06/09 10:02:04;;;;;;;6.75;5.43;;;;;;;34.57;61.03;99682.22;4393258;32;20193;-88
2021/06/09 10:04:33;;;;;;;6.80;5.07;;;;;;;34.68;61.04;99668.09;4381261;32;20132;-88
2021/06/09 10:06:59;;;;;;;8.98;5.47;;;;;;;34.79;61.04;99662.06;4380755;32;20252;-88
2021/06/09 10:09:25;;;;;;;8.52;5.32;;;;;;;34.99;61.04;99668.31;4380046;32;20130;-87
2021/06/09 10:12:03;;;;;;;7.25;5.55;;;;;;;35.07;61.05;99665.41;4393405;32;20112;-87
2021/06/09 10:14:37;;;;;;;12.05;5.47;;;;;;;35.23;61.05;99668.72;4407235;32;20093;-86
2021/06/09 10:17:06;;;;;;;7.30;5.55;;;;;;;35.30;61.06;99673.09;4393169;32;20467;-87
2021/06/09 10:19:43;;;;;;;7.68;5.70;;;;;;;35.42;61.07;99662.47;4393244;32;20602;-87
2021/06/09 10:22:16;;;;;;;8.23;5.05;;;;;;;35.32;61.06;99667.47;4393222;32;20104;-89
2021/06/09 10:24:53;;;;;;;6.93;5.20;;;;;;;35.13;61.05;99669.16;4407208;32;20109;-88
2021/06/09 10:27:31;;;;;;;9.50;5.43;;;;;;;35.22;61.06;99654.34;4406918;32;20197;-88
2021/06/09 10:29:57;;;;;;;6.28;5.07;;;;;;;35.28;61.06;99664.34;4369450;32;20113;-88
2021/06/09 10:32:22;;;;;;;6.00;4.97;;;;;;;35.52;61.07;99662.88;4379753;32;29665;-88
2021/06/09 10:34:47;;;;;;;7.37;5.75;;;;;;;35.60;61.08;99661.78;4392704;32;23190;-87
2021/06/09 10:37:14;;;;;;;7.95;5.55;;;;;;;35.68;61.08;99661.53;4393159;32;20140;-88
2021/06/09 10:39:41;;;;;;;8.50;5.40;;;;;;;35.67;61.08;99660.72;4381130;32;20221;-87
2021/06/09 10:42:09;;;;;;;8.82;5.95;;;;;;;35.80;61.08;99662.56;4392924;32;20086;-87
2021/06/09 10:44:36;;;;;;;9.55;5.78;;;;;;;35.76;61.08;99655.91;4406969;32;20121;-88
2021/06/09 10:47:02;;;;;;;6.20;5.60;;;;;;;35.59;61.08;99655.53;4392936;32;20110;-87
2021/06/09 10:49:32;;;;;;;6.30;5.43;;;;;;;35.57;61.08;99654.09;4393177;32;20110;-87
2021/06/09 10:51:57;;;;;;;9.07;5.60;;;;;;;35.58;61.08;99656.59;4392753;32;20128;-87
2021/06/09 10:54:26;;;;;;;6.22;5.12;;;;;;;35.90;61.10;99654.81;4367661;32;20430;-88
2021/06/09 10:56:52;;;;;;;10.10;5.93;;;;;;;35.83;61.09;99647.78;4393221;32;20094;-86
2021/06/09 10:59:20;;;;;;;8.52;6.20;;;;;;;36.03;61.10;99650.37;4392105;32;20114;-86
2021/06/09 11:01:46;;;;;;;7.75;6.15;;;;;;;35.96;61.09;99645.84;4406469;32;20156;-86
2021/06/09 11:04:11;;;;;;;6.65;5.57;;;;;;;35.90;61.10;99648.56;4405100;32;20102;-87
2021/06/09 11:06:38;;;;;;;8.65;5.72;;;;;;;35.57;61.08;99649.50;4380212;32;20193;-87
2021/06/09 11:09:11;;;;;;;7.68;5.72;;;;;;;35.36;61.06;99642.50;4406425;32;20520;-86
2021/06/09 11:11:36;;;;;;;9.05;5.43;;;;;;;35.57;61.08;99638.69;4379960;32;20514;-88
2021/06/09 11:14:19;;;;;;;9.93;5.32;;;;;;;35.59;61.08;99633.88;4367521;32;20098;-86
2021/06/09 11:16:48;;;;;;;7.05;5.55;;;;;;;35.90;61.10;99632.31;4393686;32;20099;-88
2021/06/09 11:19:33;;;;;;;6.87;5.43;;;;;;;36.06;61.10;99631.81;4390718;32;20110;-86
2021/06/09 11:22:25;;;;;;;10.43;5.05;;;;;;;36.29;61.12;99621.25;4392674;32;20147;-89
2021/06/09 11:25:07;;;;;;;6.20;5.60;;;;;;;36.27;61.11;99628.78;4390527;32;20102;-87
2021/06/09 11:27:33;;;;;;;8.85;5.80;;;;;;;36.11;61.10;99631.16;4406321;32;20102;-87
2021/06/09 11:29:58;;;;;;;9.32;5.57;;;;;;;35.91;61.10;99628.56;4390862;32;26633;-87
2021/06/09 11:32:24;;;;;;;7.57;5.25;;;;;;;36.01;61.10;99623.50;4380185;32;20124;-88
2021/06/09 11:34:56;;;;;;;9.57;5.85;;;;;;;35.85;61.09;99622.13;4368674;32;20102;-87
2021/06/09 11:37:22;;;;;;;8.10;5.32;;;;;;;35.69;61.08;99625.28;4394182;32;20115;-87